sensor_id;sensor_type;location;lat;lon;timestamp;temperature;humidity
3492;DHT22;1760;52.480;13.422;2022-10-30T00:00:30;17.00;99.90
3492;DHT22;1760;52.480;13.422;2022-10-30T00:02:58;16.90;99.90
3492;DHT22;1760;52.480;13.422;2022-10-30T00:05:26;16.90;99.90
3492;DHT22;1760;52.480;13.422;2022-10-30T00:07:54;16.90;99.90
3492;DHT22;1760;52.480;13.422;2022-10-30T00:10:21;16.80;99.90
3492;DHT22;1760;52.480;13.422;2022-10-30T00:12:48;16.80;99.90
3492;DHT22;1760;52.480;13.422;2022-10-30T00:15:15;16.90;99.90
3492;DHT22;1760;52.480;13.422;2022-10-30T00:17:41;16.90;99.90
3492;DHT22;1760;52.480;13.422;2022-10-30T00:20:09;16.80;99.90
3492;DHT22;1760;52.480;13.422;2022-10-30T00:22:37;16.80;99.90
3492;DHT22;1760;52.480;13.422;2022-10-30T00:25:04;16.70;99.90
3492;DHT22;1760;52.480;13.422;2022-10-30T00:27:34;16.70;99.90
3492;DHT22;1760;52.480;13.422;2022-10-30T00:30:01;16.70;99.90
3492;DHT22;1760;52.480;13.422;2022-10-30T00:32:27;16.70;99.90
3492;DHT22;1760;52.480;13.422;2022-10-30T00:34:54;16.70;99.90
3492;DHT22;1760;52.480;13.422;2022-10-30T00:37:21;16.70;99.90
3492;DHT22;1760;52.480;13.422;2022-10-30T00:39:49;16.60;99.90
3492;DHT22;1760;52.480;13.422;2022-10-30T00:42:16;16.60;99.90
3492;DHT22;1760;52.480;13.422;2022-10-30T00:44:46;16.50;99.90
3492;DHT22;1760;52.480;13.422;2022-10-30T00:47:18;16.50;99.90
3492;DHT22;1760;52.480;13.422;2022-10-30T00:49:51;16.50;99.90
3492;DHT22;1760;52.480;13.422;2022-10-30T00:52:20;16.50;99.90
3492;DHT22;1760;52.480;13.422;2022-10-30T00:54:48;16.40;99.90
3492;DHT22;1760;52.480;13.422;2022-10-30T00:57:16;16.40;99.90
3492;DHT22;1760;52.480;13.422;2022-10-30T00:59:44;16.40;99.90
3492;DHT22;1760;52.480;13.422;2022-10-30T01:02:11;16.40;99.90
3492;DHT22;1760;52.480;13.422;2022-10-30T01:04:40;16.30;99.90
3492;DHT22;1760;52.480;13.422;2022-10-30T01:07:16;16.30;99.90
3492;DHT22;1760;52.480;13.422;2022-10-30T01:09:44;16.20;99.90
3492;DHT22;1760;52.480;13.422;2022-10-30T01:12:13;16.20;99.90
3492;DHT22;1760;52.480;13.422;2022-10-30T01:14:42;16.20;99.90
3492;DHT22;1760;52.480;13.422;2022-10-30T01:17:32;16.20;99.90
3492;DHT22;1760;52.480;13.422;2022-10-30T01:20:13;16.20;99.90
3492;DHT22;1760;52.480;13.422;2022-10-30T01:22:54;16.20;99.90
3492;DHT22;1760;52.480;13.422;2022-10-30T01:25:37;16.10;99.90
3492;DHT22;1760;52.480;13.422;2022-10-30T01:28:25;16.10;99.90
3492;DHT22;1760;52.480;13.422;2022-10-30T01:31:02;16.00;99.90
3492;DHT22;1760;52.480;13.422;2022-10-30T01:33:44;16.00;99.90
3492;DHT22;1760;52.480;13.422;2022-10-30T01:36:17;16.00;99.90
3492;DHT22;1760;52.480;13.422;2022-10-30T01:39:04;15.90;99.90
3492;DHT22;1760;52.480;13.422;2022-10-30T01:41:33;15.90;99.90
3492;DHT22;1760;52.480;13.422;2022-10-30T01:44:04;15.90;99.90
3492;DHT22;1760;52.480;13.422;2022-10-30T01:46:43;15.90;99.90
3492;DHT22;1760;52.480;13.422;2022-10-30T01:49:37;15.80;99.90
3492;DHT22;1760;52.480;13.422;2022-10-30T01:52:18;15.80;99.90
3492;DHT22;1760;52.480;13.422;2022-10-30T01:54:52;15.80;99.90
3492;DHT22;1760;52.480;13.422;2022-10-30T01:57:33;15.80;99.90
3492;DHT22;1760;52.480;13.422;2022-10-30T02:00:05;15.80;99.90
3492;DHT22;1760;52.480;13.422;2022-10-30T02:02:34;15.70;99.90
3492;DHT22;1760;52.480;13.422;2022-10-30T02:05:01;15.70;99.90
3492;DHT22;1760;52.480;13.422;2022-10-30T02:07:28;15.60;99.90
3492;DHT22;1760;52.480;13.422;2022-10-30T02:10:24;15.60;99.90
3492;DHT22;1760;52.480;13.422;2022-10-30T02:12:51;15.60;99.90
3492;DHT22;1760;52.480;13.422;2022-10-30T02:15:19;15.60;99.90
3492;DHT22;1760;52.480;13.422;2022-10-30T02:17:46;15.60;99.90
3492;DHT22;1760;52.480;13.422;2022-10-30T02:20:16;15.60;99.90
3492;DHT22;1760;52.480;13.422;2022-10-30T02:22:43;15.60;99.90
3492;DHT22;1760;52.480;13.422;2022-10-30T02:25:13;15.60;99.90
3492;DHT22;1760;52.480;13.422;2022-10-30T02:27:40;15.50;99.90
3492;DHT22;1760;52.480;13.422;2022-10-30T02:30:07;15.50;99.90
3492;DHT22;1760;52.480;13.422;2022-10-30T02:32:35;15.50;99.90
3492;DHT22;1760;52.480;13.422;2022-10-30T02:35:02;15.50;99.90
3492;DHT22;1760;52.480;13.422;2022-10-30T02:37:30;15.50;99.90
3492;DHT22;1760;52.480;13.422;2022-10-30T02:40:00;15.50;99.90
3492;DHT22;1760;52.480;13.422;2022-10-30T02:42:28;15.50;99.90
3492;DHT22;1760;52.480;13.422;2022-10-30T02:44:57;15.50;99.90
3492;DHT22;1760;52.480;13.422;2022-10-30T02:47:28;15.50;99.90
3492;DHT22;1760;52.480;13.422;2022-10-30T02:49:55;15.50;99.90
3492;DHT22;1760;52.480;13.422;2022-10-30T02:52:22;15.50;99.90
3492;DHT22;1760;52.480;13.422;2022-10-30T02:54:57;15.50;99.90
3492;DHT22;1760;52.480;13.422;2022-10-30T02:57:27;15.50;99.90
3492;DHT22;1760;52.480;13.422;2022-10-30T02:59:53;15.50;99.90
3492;DHT22;1760;52.480;13.422;2022-10-30T03:02:20;15.50;99.90
3492;DHT22;1760;52.480;13.422;2022-10-30T03:04:47;15.50;99.90
3492;DHT22;1760;52.480;13.422;2022-10-30T03:07:14;15.50;99.90
3492;DHT22;1760;52.480;13.422;2022-10-30T03:09:41;15.40;99.90
3492;DHT22;1760;52.480;13.422;2022-10-30T03:12:09;15.40;99.90
3492;DHT22;1760;52.480;13.422;2022-10-30T03:14:37;15.40;99.90
3492;DHT22;1760;52.480;13.422;2022-10-30T03:17:04;15.50;99.90
3492;DHT22;1760;52.480;13.422;2022-10-30T03:19:31;15.50;99.90
3492;DHT22;1760;52.480;13.422;2022-10-30T03:22:03;15.50;99.90
3492;DHT22;1760;52.480;13.422;2022-10-30T03:24:29;15.60;99.90
3492;DHT22;1760;52.480;13.422;2022-10-30T03:26:59;15.60;99.90
3492;DHT22;1760;52.480;13.422;2022-10-30T03:29:27;15.60;99.90
3492;DHT22;1760;52.480;13.422;2022-10-30T03:31:54;15.50;99.90
3492;DHT22;1760;52.480;13.422;2022-10-30T03:34:21;15.50;99.90
3492;DHT22;1760;52.480;13.422;2022-10-30T03:36:50;15.40;99.90
3492;DHT22;1760;52.480;13.422;2022-10-30T03:39:17;15.30;99.90
3492;DHT22;1760;52.480;13.422;2022-10-30T03:41:44;15.20;99.90
3492;DHT22;1760;52.480;13.422;2022-10-30T03:44:12;15.20;99.90
3492;DHT22;1760;52.480;13.422;2022-10-30T03:46:43;15.20;99.90
3492;DHT22;1760;52.480;13.422;2022-10-30T03:49:10;15.30;99.90
3492;DHT22;1760;52.480;13.422;2022-10-30T03:51:39;15.40;99.90
3492;DHT22;1760;52.480;13.422;2022-10-30T03:54:06;15.40;99.90
3492;DHT22;1760;52.480;13.422;2022-10-30T03:56:33;15.40;99.90
3492;DHT22;1760;52.480;13.422;2022-10-30T03:59:00;15.40;99.90
3492;DHT22;1760;52.480;13.422;2022-10-30T04:01:26;15.40;99.90
3492;DHT22;1760;52.480;13.422;2022-10-30T04:03:54;15.50;99.90
3492;DHT22;1760;52.480;13.422;2022-10-30T04:06:24;15.50;99.90
3492;DHT22;1760;52.480;13.422;2022-10-30T04:08:53;15.50;99.90
3492;DHT22;1760;52.480;13.422;2022-10-30T04:11:20;15.50;99.90
3492;DHT22;1760;52.480;13.422;2022-10-30T04:13:47;15.60;99.90
3492;DHT22;1760;52.480;13.422;2022-10-30T04:16:17;15.60;99.90
3492;DHT22;1760;52.480;13.422;2022-10-30T04:18:44;15.70;99.90
3492;DHT22;1760;52.480;13.422;2022-10-30T04:21:12;15.70;99.90
3492;DHT22;1760;52.480;13.422;2022-10-30T04:23:39;15.70;99.90
3492;DHT22;1760;52.480;13.422;2022-10-30T04:26:08;15.70;99.90
3492;DHT22;1760;52.480;13.422;2022-10-30T04:28:35;15.70;99.90
3492;DHT22;1760;52.480;13.422;2022-10-30T04:31:02;15.70;99.90
3492;DHT22;1760;52.480;13.422;2022-10-30T04:33:29;15.70;99.90
3492;DHT22;1760;52.480;13.422;2022-10-30T04:35:55;15.70;99.90
3492;DHT22;1760;52.480;13.422;2022-10-30T04:38:24;15.80;99.90
3492;DHT22;1760;52.480;13.422;2022-10-30T04:40:50;15.80;99.90
3492;DHT22;1760;52.480;13.422;2022-10-30T04:43:20;15.80;99.90
3492;DHT22;1760;52.480;13.422;2022-10-30T04:45:53;15.70;99.90
3492;DHT22;1760;52.480;13.422;2022-10-30T04:48:22;15.70;99.90
3492;DHT22;1760;52.480;13.422;2022-10-30T04:50:49;15.70;99.90
3492;DHT22;1760;52.480;13.422;2022-10-30T04:53:17;15.70;99.90
3492;DHT22;1760;52.480;13.422;2022-10-30T04:55:52;15.70;99.90
3492;DHT22;1760;52.480;13.422;2022-10-30T04:58:19;15.60;99.90
3492;DHT22;1760;52.480;13.422;2022-10-30T05:00:46;15.60;99.90
3492;DHT22;1760;52.480;13.422;2022-10-30T05:03:19;15.60;99.90
3492;DHT22;1760;52.480;13.422;2022-10-30T05:05:54;15.60;99.90
3492;DHT22;1760;52.480;13.422;2022-10-30T05:08:22;15.60;99.90
3492;DHT22;1760;52.480;13.422;2022-10-30T05:10:53;15.60;99.90
3492;DHT22;1760;52.480;13.422;2022-10-30T05:13:20;15.60;99.90
3492;DHT22;1760;52.480;13.422;2022-10-30T05:15:47;15.60;99.90
3492;DHT22;1760;52.480;13.422;2022-10-30T05:18:13;15.60;99.90
3492;DHT22;1760;52.480;13.422;2022-10-30T05:20:40;15.60;99.90
3492;DHT22;1760;52.480;13.422;2022-10-30T05:23:08;15.60;99.90
3492;DHT22;1760;52.480;13.422;2022-10-30T05:25:35;15.60;99.90
3492;DHT22;1760;52.480;13.422;2022-10-30T05:28:06;15.60;99.90
3492;DHT22;1760;52.480;13.422;2022-10-30T05:30:34;15.60;99.90
3492;DHT22;1760;52.480;13.422;2022-10-30T05:33:02;15.60;99.90
3492;DHT22;1760;52.480;13.422;2022-10-30T05:35:31;15.60;99.90
3492;DHT22;1760;52.480;13.422;2022-10-30T05:37:59;15.60;99.90
3492;DHT22;1760;52.480;13.422;2022-10-30T05:40:26;15.60;99.90
3492;DHT22;1760;52.480;13.422;2022-10-30T05:42:53;15.60;99.90
3492;DHT22;1760;52.480;13.422;2022-10-30T05:45:28;15.60;99.90
3492;DHT22;1760;52.480;13.422;2022-10-30T05:48:02;15.60;99.90
3492;DHT22;1760;52.480;13.422;2022-10-30T05:50:30;15.60;99.90
3492;DHT22;1760;52.480;13.422;2022-10-30T05:52:58;15.60;99.90
3492;DHT22;1760;52.480;13.422;2022-10-30T05:55:30;15.60;99.90
3492;DHT22;1760;52.480;13.422;2022-10-30T05:57:57;15.70;99.90
3492;DHT22;1760;52.480;13.422;2022-10-30T06:00:24;15.70;99.90
3492;DHT22;1760;52.480;13.422;2022-10-30T06:02:58;15.60;99.90
3492;DHT22;1760;52.480;13.422;2022-10-30T06:05:24;15.60;99.90
3492;DHT22;1760;52.480;13.422;2022-10-30T06:07:53;15.60;99.90
3492;DHT22;1760;52.480;13.422;2022-10-30T06:10:21;15.60;99.90
3492;DHT22;1760;52.480;13.422;2022-10-30T06:12:55;15.60;99.90
3492;DHT22;1760;52.480;13.422;2022-10-30T06:15:22;15.60;99.90
3492;DHT22;1760;52.480;13.422;2022-10-30T06:17:54;15.70;99.90
3492;DHT22;1760;52.480;13.422;2022-10-30T06:20:23;15.70;99.90
3492;DHT22;1760;52.480;13.422;2022-10-30T06:22:54;15.80;99.90
3492;DHT22;1760;52.480;13.422;2022-10-30T06:25:22;15.90;99.90
3492;DHT22;1760;52.480;13.422;2022-10-30T06:27:49;15.90;99.90
3492;DHT22;1760;52.480;13.422;2022-10-30T06:30:16;16.00;99.90
3492;DHT22;1760;52.480;13.422;2022-10-30T06:32:47;16.00;99.90
3492;DHT22;1760;52.480;13.422;2022-10-30T06:35:15;16.00;99.90
3492;DHT22;1760;52.480;13.422;2022-10-30T06:37:46;16.00;99.90
3492;DHT22;1760;52.480;13.422;2022-10-30T06:40:13;16.00;99.90
3492;DHT22;1760;52.480;13.422;2022-10-30T06:42:43;16.00;99.90
3492;DHT22;1760;52.480;13.422;2022-10-30T06:45:11;16.00;99.90
3492;DHT22;1760;52.480;13.422;2022-10-30T06:47:40;16.10;99.90
3492;DHT22;1760;52.480;13.422;2022-10-30T06:50:09;16.10;99.90
3492;DHT22;1760;52.480;13.422;2022-10-30T06:52:38;16.10;99.90
3492;DHT22;1760;52.480;13.422;2022-10-30T06:55:06;16.10;99.90
3492;DHT22;1760;52.480;13.422;2022-10-30T06:57:33;16.20;99.90
3492;DHT22;1760;52.480;13.422;2022-10-30T07:00:00;16.30;99.90
3492;DHT22;1760;52.480;13.422;2022-10-30T07:02:26;16.30;99.90
3492;DHT22;1760;52.480;13.422;2022-10-30T07:04:53;16.30;99.90
3492;DHT22;1760;52.480;13.422;2022-10-30T07:07:20;16.30;99.90
3492;DHT22;1760;52.480;13.422;2022-10-30T07:09:48;16.30;99.90
3492;DHT22;1760;52.480;13.422;2022-10-30T07:12:15;16.40;99.90
3492;DHT22;1760;52.480;13.422;2022-10-30T07:14:41;16.40;99.90
3492;DHT22;1760;52.480;13.422;2022-10-30T07:17:08;16.50;99.90
3492;DHT22;1760;52.480;13.422;2022-10-30T07:19:35;16.40;99.90
3492;DHT22;1760;52.480;13.422;2022-10-30T07:22:02;16.40;99.90
3492;DHT22;1760;52.480;13.422;2022-10-30T07:24:28;16.40;99.90
3492;DHT22;1760;52.480;13.422;2022-10-30T07:26:58;16.30;99.90
3492;DHT22;1760;52.480;13.422;2022-10-30T07:29:25;16.20;99.90
3492;DHT22;1760;52.480;13.422;2022-10-30T07:31:52;16.30;99.90
3492;DHT22;1760;52.480;13.422;2022-10-30T07:34:18;16.30;99.90
3492;DHT22;1760;52.480;13.422;2022-10-30T07:36:45;16.30;99.90
3492;DHT22;1760;52.480;13.422;2022-10-30T07:39:17;16.30;99.90
3492;DHT22;1760;52.480;13.422;2022-10-30T07:41:47;16.40;99.90
3492;DHT22;1760;52.480;13.422;2022-10-30T07:44:15;16.40;99.90
3492;DHT22;1760;52.480;13.422;2022-10-30T07:46:41;16.40;99.90
3492;DHT22;1760;52.480;13.422;2022-10-30T07:49:11;16.40;99.90
3492;DHT22;1760;52.480;13.422;2022-10-30T07:51:41;16.50;99.90
3492;DHT22;1760;52.480;13.422;2022-10-30T07:54:08;16.60;99.90
3492;DHT22;1760;52.480;13.422;2022-10-30T07:56:34;16.70;99.90
3492;DHT22;1760;52.480;13.422;2022-10-30T07:59:01;16.80;99.90
3492;DHT22;1760;52.480;13.422;2022-10-30T08:01:30;16.90;99.90
3492;DHT22;1760;52.480;13.422;2022-10-30T08:03:56;16.90;99.90
3492;DHT22;1760;52.480;13.422;2022-10-30T08:06:23;17.00;99.90
3492;DHT22;1760;52.480;13.422;2022-10-30T08:08:50;17.00;99.90
3492;DHT22;1760;52.480;13.422;2022-10-30T08:11:17;17.10;99.90
3492;DHT22;1760;52.480;13.422;2022-10-30T08:13:44;17.20;99.90
3492;DHT22;1760;52.480;13.422;2022-10-30T08:16:10;17.30;99.90
3492;DHT22;1760;52.480;13.422;2022-10-30T08:18:39;17.30;99.90
3492;DHT22;1760;52.480;13.422;2022-10-30T08:21:07;17.40;99.90
3492;DHT22;1760;52.480;13.422;2022-10-30T08:23:33;17.40;99.90
3492;DHT22;1760;52.480;13.422;2022-10-30T08:26:00;17.40;99.90
3492;DHT22;1760;52.480;13.422;2022-10-30T08:28:27;17.50;99.90
3492;DHT22;1760;52.480;13.422;2022-10-30T08:30:54;17.60;99.90
3492;DHT22;1760;52.480;13.422;2022-10-30T08:33:20;17.70;99.90
3492;DHT22;1760;52.480;13.422;2022-10-30T08:35:50;17.80;99.90
3492;DHT22;1760;52.480;13.422;2022-10-30T08:38:18;17.80;99.90
3492;DHT22;1760;52.480;13.422;2022-10-30T08:40:45;17.80;99.90
3492;DHT22;1760;52.480;13.422;2022-10-30T08:43:12;18.00;99.90
3492;DHT22;1760;52.480;13.422;2022-10-30T08:45:39;18.10;99.90
3492;DHT22;1760;52.480;13.422;2022-10-30T08:48:10;18.20;99.90
3492;DHT22;1760;52.480;13.422;2022-10-30T08:50:37;18.30;99.90
3492;DHT22;1760;52.480;13.422;2022-10-30T08:53:09;18.40;99.90
3492;DHT22;1760;52.480;13.422;2022-10-30T08:55:36;18.60;99.90
3492;DHT22;1760;52.480;13.422;2022-10-30T08:58:03;18.70;99.90
3492;DHT22;1760;52.480;13.422;2022-10-30T09:00:30;18.80;99.90
3492;DHT22;1760;52.480;13.422;2022-10-30T09:02:56;19.00;99.90
3492;DHT22;1760;52.480;13.422;2022-10-30T09:05:23;19.00;99.90
3492;DHT22;1760;52.480;13.422;2022-10-30T09:07:57;19.00;99.90
3492;DHT22;1760;52.480;13.422;2022-10-30T09:10:26;19.10;99.90
3492;DHT22;1760;52.480;13.422;2022-10-30T09:12:54;19.20;99.90
3492;DHT22;1760;52.480;13.422;2022-10-30T09:15:21;19.30;99.90
3492;DHT22;1760;52.480;13.422;2022-10-30T09:17:54;19.40;99.90
3492;DHT22;1760;52.480;13.422;2022-10-30T09:20:21;19.50;99.90
3492;DHT22;1760;52.480;13.422;2022-10-30T09:22:47;19.60;99.90
3492;DHT22;1760;52.480;13.422;2022-10-30T09:25:14;19.70;99.90
3492;DHT22;1760;52.480;13.422;2022-10-30T09:27:43;20.40;99.90
3492;DHT22;1760;52.480;13.422;2022-10-30T09:30:10;21.40;99.90
3492;DHT22;1760;52.480;13.422;2022-10-30T09:32:37;22.60;99.90
3492;DHT22;1760;52.480;13.422;2022-10-30T09:35:04;23.80;99.90
3492;DHT22;1760;52.480;13.422;2022-10-30T09:37:33;24.80;99.90
3492;DHT22;1760;52.480;13.422;2022-10-30T09:40:00;25.70;99.90
3492;DHT22;1760;52.480;13.422;2022-10-30T09:42:41;26.50;99.90
3492;DHT22;1760;52.480;13.422;2022-10-30T09:48:10;27.70;99.90
3492;DHT22;1760;52.480;13.422;2022-10-30T09:50:45;28.10;97.50
3492;DHT22;1760;52.480;13.422;2022-10-30T09:53:24;28.30;94.50
3492;DHT22;1760;52.480;13.422;2022-10-30T09:56:03;28.30;94.50
3492;DHT22;1760;52.480;13.422;2022-10-30T09:58:36;28.40;93.00
3492;DHT22;1760;52.480;13.422;2022-10-30T10:01:13;28.50;92.30
3492;DHT22;1760;52.480;13.422;2022-10-30T10:03:52;28.50;91.30
3492;DHT22;1760;52.480;13.422;2022-10-30T10:06:25;28.60;90.80
3492;DHT22;1760;52.480;13.422;2022-10-30T10:08:54;28.60;90.30
3492;DHT22;1760;52.480;13.422;2022-10-30T10:11:25;28.50;90.60
3492;DHT22;1760;52.480;13.422;2022-10-30T10:13:58;28.50;90.60
3492;DHT22;1760;52.480;13.422;2022-10-30T10:16:34;28.50;89.80
3492;DHT22;1760;52.480;13.422;2022-10-30T10:19:08;28.50;88.30
3492;DHT22;1760;52.480;13.422;2022-10-30T10:21:42;28.50;88.90
3492;DHT22;1760;52.480;13.422;2022-10-30T10:24:14;28.50;87.70
3492;DHT22;1760;52.480;13.422;2022-10-30T10:26:47;28.40;88.30
3492;DHT22;1760;52.480;13.422;2022-10-30T10:29:36;28.40;88.20
3492;DHT22;1760;52.480;13.422;2022-10-30T10:32:39;28.30;87.50
3492;DHT22;1760;52.480;13.422;2022-10-30T10:35:32;28.20;87.00
3492;DHT22;1760;52.480;13.422;2022-10-30T10:38:05;28.20;87.50
3492;DHT22;1760;52.480;13.422;2022-10-30T10:40:48;28.10;87.20
3492;DHT22;1760;52.480;13.422;2022-10-30T10:43:26;28.10;88.30
3492;DHT22;1760;52.480;13.422;2022-10-30T10:46:11;28.00;86.50
3492;DHT22;1760;52.480;13.422;2022-10-30T10:49:05;27.80;86.50
3492;DHT22;1760;52.480;13.422;2022-10-30T10:51:38;27.40;88.20
3492;DHT22;1760;52.480;13.422;2022-10-30T10:54:10;27.30;90.00
3492;DHT22;1760;52.480;13.422;2022-10-30T10:56:41;27.30;89.70
3492;DHT22;1760;52.480;13.422;2022-10-30T10:59:13;27.00;90.00
3492;DHT22;1760;52.480;13.422;2022-10-30T11:01:45;26.90;91.10
3492;DHT22;1760;52.480;13.422;2022-10-30T11:04:26;26.60;90.60
3492;DHT22;1760;52.480;13.422;2022-10-30T11:06:57;26.20;91.50
3492;DHT22;1760;52.480;13.422;2022-10-30T11:09:26;25.70;91.90
3492;DHT22;1760;52.480;13.422;2022-10-30T11:11:54;25.30;93.10
3492;DHT22;1760;52.480;13.422;2022-10-30T11:14:22;24.90;93.30
3492;DHT22;1760;52.480;13.422;2022-10-30T11:17:01;24.50;94.20
3492;DHT22;1760;52.480;13.422;2022-10-30T11:19:32;24.20;95.80
3492;DHT22;1760;52.480;13.422;2022-10-30T11:22:00;23.90;97.20
3492;DHT22;1760;52.480;13.422;2022-10-30T11:24:29;23.70;99.30
3492;DHT22;1760;52.480;13.422;2022-10-30T11:27:16;23.50;99.90
3492;DHT22;1760;52.480;13.422;2022-10-30T11:29:48;23.20;99.90
3492;DHT22;1760;52.480;13.422;2022-10-30T11:32:18;23.00;99.90
3492;DHT22;1760;52.480;13.422;2022-10-30T11:35:02;23.00;99.90
3492;DHT22;1760;52.480;13.422;2022-10-30T11:37:38;22.90;99.90
3492;DHT22;1760;52.480;13.422;2022-10-30T11:40:11;22.80;99.90
3492;DHT22;1760;52.480;13.422;2022-10-30T11:42:43;22.80;99.90
3492;DHT22;1760;52.480;13.422;2022-10-30T11:45:14;22.80;99.90
3492;DHT22;1760;52.480;13.422;2022-10-30T11:47:43;22.80;99.90
3492;DHT22;1760;52.480;13.422;2022-10-30T11:50:18;22.70;99.90
3492;DHT22;1760;52.480;13.422;2022-10-30T11:52:47;22.70;99.90
3492;DHT22;1760;52.480;13.422;2022-10-30T11:55:17;22.60;99.90
3492;DHT22;1760;52.480;13.422;2022-10-30T11:57:47;22.60;99.90
3492;DHT22;1760;52.480;13.422;2022-10-30T12:00:17;22.50;99.90
3492;DHT22;1760;52.480;13.422;2022-10-30T12:02:46;22.60;99.90
3492;DHT22;1760;52.480;13.422;2022-10-30T12:05:33;22.60;99.90
3492;DHT22;1760;52.480;13.422;2022-10-30T12:08:18;22.70;99.90
3492;DHT22;1760;52.480;13.422;2022-10-30T12:10:47;22.60;99.90
3492;DHT22;1760;52.480;13.422;2022-10-30T12:13:21;22.60;99.90
3492;DHT22;1760;52.480;13.422;2022-10-30T12:16:02;22.70;99.90
3492;DHT22;1760;52.480;13.422;2022-10-30T12:18:30;22.70;99.90
3492;DHT22;1760;52.480;13.422;2022-10-30T12:21:01;22.70;99.90
3492;DHT22;1760;52.480;13.422;2022-10-30T12:23:28;22.70;99.90
3492;DHT22;1760;52.480;13.422;2022-10-30T12:25:58;22.70;99.90
3492;DHT22;1760;52.480;13.422;2022-10-30T12:28:28;22.70;99.90
3492;DHT22;1760;52.480;13.422;2022-10-30T12:30:59;22.70;99.90
3492;DHT22;1760;52.480;13.422;2022-10-30T12:33:30;22.70;99.90
3492;DHT22;1760;52.480;13.422;2022-10-30T12:36:00;22.70;99.90
3492;DHT22;1760;52.480;13.422;2022-10-30T12:38:33;22.60;99.90
3492;DHT22;1760;52.480;13.422;2022-10-30T12:41:11;22.70;99.90
3492;DHT22;1760;52.480;13.422;2022-10-30T12:43:42;22.70;99.90
3492;DHT22;1760;52.480;13.422;2022-10-30T12:46:22;22.70;99.90
3492;DHT22;1760;52.480;13.422;2022-10-30T12:48:52;22.70;99.90
3492;DHT22;1760;52.480;13.422;2022-10-30T12:51:28;22.60;99.90
3492;DHT22;1760;52.480;13.422;2022-10-30T12:54:01;22.60;99.90
3492;DHT22;1760;52.480;13.422;2022-10-30T12:56:35;22.60;99.90
3492;DHT22;1760;52.480;13.422;2022-10-30T12:59:18;22.60;99.90
3492;DHT22;1760;52.480;13.422;2022-10-30T13:01:50;22.70;99.90
3492;DHT22;1760;52.480;13.422;2022-10-30T13:04:22;22.70;99.90
3492;DHT22;1760;52.480;13.422;2022-10-30T13:06:57;22.70;99.90
3492;DHT22;1760;52.480;13.422;2022-10-30T13:09:29;22.70;99.90
3492;DHT22;1760;52.480;13.422;2022-10-30T13:12:02;22.70;99.90
3492;DHT22;1760;52.480;13.422;2022-10-30T13:14:33;22.80;99.90
3492;DHT22;1760;52.480;13.422;2022-10-30T13:17:00;22.90;99.90
3492;DHT22;1760;52.480;13.422;2022-10-30T13:19:27;22.90;99.90
3492;DHT22;1760;52.480;13.422;2022-10-30T13:22:00;23.00;99.90
3492;DHT22;1760;52.480;13.422;2022-10-30T13:24:41;23.00;99.90
3492;DHT22;1760;52.480;13.422;2022-10-30T13:27:18;23.10;99.90
3492;DHT22;1760;52.480;13.422;2022-10-30T13:29:55;23.00;99.90
3492;DHT22;1760;52.480;13.422;2022-10-30T13:32:32;23.00;99.90
3492;DHT22;1760;52.480;13.422;2022-10-30T13:35:11;23.00;99.90
3492;DHT22;1760;52.480;13.422;2022-10-30T13:37:50;23.00;99.90
3492;DHT22;1760;52.480;13.422;2022-10-30T13:40:24;23.00;99.90
3492;DHT22;1760;52.480;13.422;2022-10-30T13:43:04;23.00;99.90
3492;DHT22;1760;52.480;13.422;2022-10-30T13:45:49;23.00;99.90
3492;DHT22;1760;52.480;13.422;2022-10-30T13:48:29;22.90;99.90
3492;DHT22;1760;52.480;13.422;2022-10-30T13:51:25;22.80;99.90
3492;DHT22;1760;52.480;13.422;2022-10-30T13:54:06;22.80;99.90
3492;DHT22;1760;52.480;13.422;2022-10-30T13:56:35;22.80;99.90
3492;DHT22;1760;52.480;13.422;2022-10-30T13:59:08;22.70;99.90
3492;DHT22;1760;52.480;13.422;2022-10-30T14:01:44;22.70;99.90
3492;DHT22;1760;52.480;13.422;2022-10-30T14:04:17;22.70;99.90
3492;DHT22;1760;52.480;13.422;2022-10-30T14:06:49;22.70;99.90
3492;DHT22;1760;52.480;13.422;2022-10-30T14:09:26;22.60;99.90
3492;DHT22;1760;52.480;13.422;2022-10-30T14:11:59;22.60;99.90
3492;DHT22;1760;52.480;13.422;2022-10-30T14:14:29;22.60;99.90
3492;DHT22;1760;52.480;13.422;2022-10-30T14:17:10;22.60;99.90
3492;DHT22;1760;52.480;13.422;2022-10-30T14:22:33;22.40;99.90
3492;DHT22;1760;52.480;13.422;2022-10-30T14:25:11;22.40;99.90
3492;DHT22;1760;52.480;13.422;2022-10-30T14:27:39;22.40;99.90
3492;DHT22;1760;52.480;13.422;2022-10-30T14:30:16;22.30;99.90
3492;DHT22;1760;52.480;13.422;2022-10-30T14:32:50;22.30;99.90
3492;DHT22;1760;52.480;13.422;2022-10-30T14:35:38;22.20;99.90
3492;DHT22;1760;52.480;13.422;2022-10-30T14:38:25;22.10;99.90
3492;DHT22;1760;52.480;13.422;2022-10-30T14:46:46;21.90;99.90
3492;DHT22;1760;52.480;13.422;2022-10-30T14:49:35;21.90;99.90
3492;DHT22;1760;52.480;13.422;2022-10-30T14:52:22;21.80;99.90
3492;DHT22;1760;52.480;13.422;2022-10-30T14:55:00;21.70;99.90
3492;DHT22;1760;52.480;13.422;2022-10-30T14:57:45;21.60;99.90
3492;DHT22;1760;52.480;13.422;2022-10-30T15:00:39;21.50;99.90
3492;DHT22;1760;52.480;13.422;2022-10-30T15:03:23;21.50;99.90
3492;DHT22;1760;52.480;13.422;2022-10-30T15:05:58;21.40;99.90
3492;DHT22;1760;52.480;13.422;2022-10-30T15:08:41;21.30;99.90
3492;DHT22;1760;52.480;13.422;2022-10-30T15:11:36;21.20;99.90
3492;DHT22;1760;52.480;13.422;2022-10-30T15:14:14;21.10;99.90
3492;DHT22;1760;52.480;13.422;2022-10-30T15:16:43;21.00;99.90
3492;DHT22;1760;52.480;13.422;2022-10-30T15:19:11;20.90;99.90
3492;DHT22;1760;52.480;13.422;2022-10-30T15:21:42;20.80;99.90
3492;DHT22;1760;52.480;13.422;2022-10-30T15:24:14;20.70;99.90
3492;DHT22;1760;52.480;13.422;2022-10-30T15:26:44;20.70;99.90
3492;DHT22;1760;52.480;13.422;2022-10-30T15:29:18;20.60;99.90
3492;DHT22;1760;52.480;13.422;2022-10-30T15:31:56;20.50;99.90
3492;DHT22;1760;52.480;13.422;2022-10-30T15:34:25;20.40;99.90
3492;DHT22;1760;52.480;13.422;2022-10-30T15:36:52;20.40;99.90
3492;DHT22;1760;52.480;13.422;2022-10-30T15:39:19;20.20;99.90
3492;DHT22;1760;52.480;13.422;2022-10-30T15:41:47;20.20;99.90
3492;DHT22;1760;52.480;13.422;2022-10-30T15:44:18;20.20;99.90
3492;DHT22;1760;52.480;13.422;2022-10-30T15:46:47;20.10;99.90
3492;DHT22;1760;52.480;13.422;2022-10-30T15:49:19;20.00;99.90
3492;DHT22;1760;52.480;13.422;2022-10-30T15:51:46;19.90;99.90
3492;DHT22;1760;52.480;13.422;2022-10-30T15:54:16;19.90;99.90
3492;DHT22;1760;52.480;13.422;2022-10-30T15:56:47;19.80;99.90
3492;DHT22;1760;52.480;13.422;2022-10-30T15:59:21;19.70;99.90
3492;DHT22;1760;52.480;13.422;2022-10-30T16:01:49;19.60;99.90
3492;DHT22;1760;52.480;13.422;2022-10-30T16:04:18;19.50;99.90
3492;DHT22;1760;52.480;13.422;2022-10-30T16:06:49;19.50;99.90
3492;DHT22;1760;52.480;13.422;2022-10-30T16:09:17;19.50;99.90
3492;DHT22;1760;52.480;13.422;2022-10-30T16:11:44;19.40;99.90
3492;DHT22;1760;52.480;13.422;2022-10-30T16:14:15;19.40;99.90
3492;DHT22;1760;52.480;13.422;2022-10-30T16:16:44;19.30;99.90
3492;DHT22;1760;52.480;13.422;2022-10-30T16:19:18;19.30;99.90
3492;DHT22;1760;52.480;13.422;2022-10-30T16:21:46;19.30;99.90